sensor_id;sensor_type;location;lat;lon;timestamp;pressure;altitude;pressure_sealevel;temperature;humidity
55994;BME280;67425;52.126;20.638;2023-05-12T00:00:56;57202.75;;;-144.78;33.30
55994;BME280;67425;52.126;20.638;2023-05-12T00:03:21;57186.16;;;-144.78;33.52
55994;BME280;67425;52.126;20.638;2023-05-12T00:05:48;57213.16;;;-144.78;34.00
55994;BME280;67425;52.126;20.638;2023-05-12T00:08:13;57219.38;;;-144.78;34.05
55994;BME280;67425;52.126;20.638;2023-05-12T00:10:38;57219.38;;;-144.78;33.48
55994;BME280;67425;52.126;20.638;2023-05-12T00:13:04;57192.38;;;-144.78;33.53
55994;BME280;67425;52.126;20.638;2023-05-12T00:15:29;57202.75;;;-144.78;33.08
55994;BME280;67425;52.126;20.638;2023-05-12T00:17:55;57206.91;;;-144.78;33.29
55994;BME280;67425;52.126;20.638;2023-05-12T00:20:20;57206.91;;;-144.78;33.35
55994;BME280;67425;52.126;20.638;2023-05-12T00:22:46;57202.75;;;-144.78;33.24
55994;BME280;67425;52.126;20.638;2023-05-12T00:25:11;57206.91;;;-144.78;33.32
55994;BME280;67425;52.126;20.638;2023-05-12T00:27:36;57179.91;;;-144.78;33.41
55994;BME280;67425;52.126;20.638;2023-05-12T00:30:02;57204.84;;;-144.78;33.54
55994;BME280;67425;52.126;20.638;2023-05-12T00:32:28;57188.22;;;-144.78;33.75
55994;BME280;67425;52.126;20.638;2023-05-12T00:34:53;57206.91;;;-144.78;33.96
55994;BME280;67425;52.126;20.638;2023-05-12T00:37:19;57204.84;;;-144.78;33.88
55994;BME280;67425;52.126;20.638;2023-05-12T00:39:44;57217.31;;;-144.78;33.91
55994;BME280;67425;52.126;20.638;2023-05-12T00:42:10;57211.06;;;-144.78;33.91
55994;BME280;67425;52.126;20.638;2023-05-12T00:44:36;57238.06;;;-144.78;34.92
55994;BME280;67425;52.126;20.638;2023-05-12T00:47:03;57221.44;;;-144.78;34.28
55994;BME280;67425;52.126;20.638;2023-05-12T00:49:29;57225.59;;;-144.78;34.55
55994;BME280;67425;52.126;20.638;2023-05-12T00:51:57;57221.44;;;-144.78;34.39
55994;BME280;67425;52.126;20.638;2023-05-12T00:54:24;57221.44;;;-144.78;34.63
55994;BME280;67425;52.126;20.638;2023-05-12T00:56:50;57240.13;;;-144.78;34.93
55994;BME280;67425;52.126;20.638;2023-05-12T00:59:16;57252.59;;;-144.78;35.08
55994;BME280;67425;52.126;20.638;2023-05-12T01:01:41;57238.06;;;-144.78;35.54
55994;BME280;67425;52.126;20.638;2023-05-12T01:04:06;57240.13;;;-144.78;34.58
55994;BME280;67425;52.126;20.638;2023-05-12T01:06:46;57225.59;;;-144.78;34.24
55994;BME280;67425;52.126;20.638;2023-05-12T01:09:13;57225.59;;;-144.78;34.13
55994;BME280;67425;52.126;20.638;2023-05-12T01:11:39;57221.44;;;-144.78;34.00
55994;BME280;67425;52.126;20.638;2023-05-12T01:14:04;57219.38;;;-144.78;34.23
55994;BME280;67425;52.126;20.638;2023-05-12T01:16:47;57206.91;;;-144.78;33.85
55994;BME280;67425;52.126;20.638;2023-05-12T01:19:40;57231.84;;;-144.78;34.19
55994;BME280;67425;52.126;20.638;2023-05-12T01:22:07;57215.22;;;-144.78;33.94
55994;BME280;67425;52.126;20.638;2023-05-12T01:24:41;57229.75;;;-144.78;34.12
55994;BME280;67425;52.126;20.638;2023-05-12T01:27:09;57206.91;;;-144.78;34.52
55994;BME280;67425;52.126;20.638;2023-05-12T01:29:35;57236.00;;;-144.78;34.42
55994;BME280;67425;52.126;20.638;2023-05-12T01:32:00;57238.06;;;-144.78;34.33
55994;BME280;67425;52.126;20.638;2023-05-12T01:34:27;57231.84;;;-144.78;35.01
55994;BME280;67425;52.126;20.638;2023-05-12T01:36:52;57231.84;;;-144.78;34.70
55994;BME280;67425;52.126;20.638;2023-05-12T01:39:17;57229.75;;;-144.78;34.71
55994;BME280;67425;52.126;20.638;2023-05-12T01:41:43;57211.06;;;-144.78;34.23
55994;BME280;67425;52.126;20.638;2023-05-12T01:44:08;57223.53;;;-144.78;33.94
55994;BME280;67425;52.126;20.638;2023-05-12T01:46:33;57227.69;;;-144.78;34.16
55994;BME280;67425;52.126;20.638;2023-05-12T01:48:59;57236.00;;;-144.78;34.62
55994;BME280;67425;52.126;20.638;2023-05-12T01:51:24;57236.00;;;-144.78;34.38
55994;BME280;67425;52.126;20.638;2023-05-12T01:53:49;57229.75;;;-144.78;34.56
55994;BME280;67425;52.126;20.638;2023-05-12T01:56:15;57236.00;;;-144.78;34.60
55994;BME280;67425;52.126;20.638;2023-05-12T01:58:40;57223.53;;;-144.78;34.79
55994;BME280;67425;52.126;20.638;2023-05-12T02:01:05;57238.06;;;-144.78;34.50
55994;BME280;67425;52.126;20.638;2023-05-12T02:03:31;57238.06;;;-144.78;34.93
55994;BME280;67425;52.126;20.638;2023-05-12T02:05:57;57229.75;;;-144.78;34.91
55994;BME280;67425;52.126;20.638;2023-05-12T02:08:22;57240.13;;;-144.78;35.21
55994;BME280;67425;52.126;20.638;2023-05-12T02:10:48;57238.06;;;-144.78;35.04
55994;BME280;67425;52.126;20.638;2023-05-12T02:13:13;57246.38;;;-144.78;34.82
55994;BME280;67425;52.126;20.638;2023-05-12T02:15:39;57242.22;;;-144.78;35.26
55994;BME280;67425;52.126;20.638;2023-05-12T02:18:04;57244.28;;;-144.78;35.55
55994;BME280;67425;52.126;20.638;2023-05-12T02:20:30;57236.00;;;-144.78;34.81
55994;BME280;67425;52.126;20.638;2023-05-12T02:22:55;57244.28;;;-144.78;35.20
55994;BME280;67425;52.126;20.638;2023-05-12T02:25:21;57236.00;;;-144.78;34.98
55994;BME280;67425;52.126;20.638;2023-05-12T02:27:46;57236.00;;;-144.78;34.93
55994;BME280;67425;52.126;20.638;2023-05-12T02:30:12;57238.06;;;-144.78;35.16
55994;BME280;67425;52.126;20.638;2023-05-12T02:32:37;57231.84;;;-144.78;35.16
55994;BME280;67425;52.126;20.638;2023-05-12T02:35:03;57231.84;;;-144.78;35.29
55994;BME280;67425;52.126;20.638;2023-05-12T02:37:28;57244.28;;;-144.78;35.25
55994;BME280;67425;52.126;20.638;2023-05-12T02:39:53;57250.53;;;-144.78;35.26
55994;BME280;67425;52.126;20.638;2023-05-12T02:42:19;57244.28;;;-144.78;35.93
55994;BME280;67425;52.126;20.638;2023-05-12T02:44:44;57225.59;;;-144.78;35.25
55994;BME280;67425;52.126;20.638;2023-05-12T02:47:09;57236.00;;;-144.78;35.25
55994;BME280;67425;52.126;20.638;2023-05-12T02:49:35;57238.06;;;-144.78;35.11
55994;BME280;67425;52.126;20.638;2023-05-12T02:52:00;57236.00;;;-144.78;35.11
55994;BME280;67425;52.126;20.638;2023-05-12T02:54:26;57252.59;;;-144.78;35.14
55994;BME280;67425;52.126;20.638;2023-05-12T02:56:51;57256.75;;;-144.78;35.26
55994;BME280;67425;52.126;20.638;2023-05-12T02:59:17;57242.22;;;-144.78;35.31
55994;BME280;67425;52.126;20.638;2023-05-12T03:01:42;57254.69;;;-144.78;35.26
55994;BME280;67425;52.126;20.638;2023-05-12T03:04:07;57244.28;;;-144.78;35.48
55994;BME280;67425;52.126;20.638;2023-05-12T03:06:33;57227.69;;;-144.78;35.54
55994;BME280;67425;52.126;20.638;2023-05-12T03:08:58;57252.59;;;-144.78;35.45
55994;BME280;67425;52.126;20.638;2023-05-12T03:11:24;57252.59;;;-144.78;35.84
55994;BME280;67425;52.126;20.638;2023-05-12T03:13:50;57236.00;;;-144.78;35.48
55994;BME280;67425;52.126;20.638;2023-05-12T03:16:15;57240.13;;;-144.78;35.58
55994;BME280;67425;52.126;20.638;2023-05-12T03:18:41;57242.22;;;-144.78;35.53
55994;BME280;67425;52.126;20.638;2023-05-12T03:21:07;57229.75;;;-144.78;35.45
55994;BME280;67425;52.126;20.638;2023-05-12T03:23:32;57256.75;;;-144.78;36.01
55994;BME280;67425;52.126;20.638;2023-05-12T03:25:59;57242.22;;;-144.78;36.08
55994;BME280;67425;52.126;20.638;2023-05-12T03:28:24;57242.22;;;-144.78;35.67
55994;BME280;67425;52.126;20.638;2023-05-12T03:30:50;57238.06;;;-144.78;35.52
55994;BME280;67425;52.126;20.638;2023-05-12T03:33:15;57233.91;;;-144.78;35.48
55994;BME280;67425;52.126;20.638;2023-05-12T03:35:40;57248.44;;;-144.78;35.74
55994;BME280;67425;52.126;20.638;2023-05-12T03:38:06;57229.75;;;-144.78;35.50
55994;BME280;67425;52.126;20.638;2023-05-12T03:40:31;57250.53;;;-144.78;35.61
55994;BME280;67425;52.126;20.638;2023-05-12T03:42:57;57233.91;;;-144.78;35.43
55994;BME280;67425;52.126;20.638;2023-05-12T03:45:23;57219.38;;;-144.78;35.37
55994;BME280;67425;52.126;20.638;2023-05-12T03:47:48;57215.22;;;-144.78;35.30
55994;BME280;67425;52.126;20.638;2023-05-12T03:50:13;57219.38;;;-144.78;34.99
55994;BME280;67425;52.126;20.638;2023-05-12T03:52:39;57221.44;;;-144.78;35.02
55994;BME280;67425;52.126;20.638;2023-05-12T03:55:05;57231.84;;;-144.78;35.35
55994;BME280;67425;52.126;20.638;2023-05-12T03:57:31;57246.38;;;-144.78;35.05
55994;BME280;67425;52.126;20.638;2023-05-12T03:59:56;57233.91;;;-144.78;35.06
55994;BME280;67425;52.126;20.638;2023-05-12T04:02:22;57227.69;;;-144.78;35.08
55994;BME280;67425;52.126;20.638;2023-05-12T04:04:47;57217.31;;;-144.78;34.86
55994;BME280;67425;52.126;20.638;2023-05-12T04:07:13;57202.75;;;-144.78;34.75
55994;BME280;67425;52.126;20.638;2023-05-12T04:09:38;57202.75;;;-144.78;34.26
55994;BME280;67425;52.126;20.638;2023-05-12T04:12:04;57213.16;;;-144.78;34.20
55994;BME280;67425;52.126;20.638;2023-05-12T04:14:29;57188.22;;;-144.78;33.76
55994;BME280;67425;52.126;20.638;2023-05-12T04:16:54;57194.47;;;-144.78;34.02
55994;BME280;67425;52.126;20.638;2023-05-12T04:19:20;57196.53;;;-144.78;34.27
55994;BME280;67425;52.126;20.638;2023-05-12T04:21:46;57194.47;;;-144.78;33.74
55994;BME280;67425;52.126;20.638;2023-05-12T04:24:11;57173.69;;;-144.78;33.61
55994;BME280;67425;52.126;20.638;2023-05-12T04:26:36;57182.00;;;-144.78;34.25
55994;BME280;67425;52.126;20.638;2023-05-12T04:29:02;57192.38;;;-144.78;34.33
55994;BME280;67425;52.126;20.638;2023-05-12T04:31:27;57196.53;;;-144.78;33.97
55994;BME280;67425;52.126;20.638;2023-05-12T04:33:52;57159.16;;;-144.78;32.85
55994;BME280;67425;52.126;20.638;2023-05-12T04:36:20;57161.22;;;-144.78;33.09
55994;BME280;67425;52.126;20.638;2023-05-12T04:38:45;57173.69;;;-144.78;32.84
55994;BME280;67425;52.126;20.638;2023-05-12T04:41:10;57161.22;;;-144.78;33.22
55994;BME280;67425;52.126;20.638;2023-05-12T04:43:36;57150.84;;;-144.78;32.48
55994;BME280;67425;52.126;20.638;2023-05-12T04:46:01;57169.53;;;-144.78;33.17
55994;BME280;67425;52.126;20.638;2023-05-12T04:48:27;57182.00;;;-144.78;32.91
55994;BME280;67425;52.126;20.638;2023-05-12T04:50:53;57155.00;;;-144.78;32.90
55994;BME280;67425;52.126;20.638;2023-05-12T04:53:18;57142.53;;;-144.78;32.19
55994;BME280;67425;52.126;20.638;2023-05-12T04:55:43;57150.84;;;-144.78;32.28
55994;BME280;67425;52.126;20.638;2023-05-12T04:58:13;57161.22;;;-144.78;32.76
55994;BME280;67425;52.126;20.638;2023-05-12T05:00:39;57152.94;;;-144.78;32.40
55994;BME280;67425;52.126;20.638;2023-05-12T05:03:04;57132.16;;;-144.78;32.27
55994;BME280;67425;52.126;20.638;2023-05-12T05:05:30;57130.09;;;-144.78;32.24
55994;BME280;67425;52.126;20.638;2023-05-12T05:07:56;57157.06;;;-144.78;32.17
55994;BME280;67425;52.126;20.638;2023-05-12T05:10:22;57157.06;;;-144.78;32.02
55994;BME280;67425;52.126;20.638;2023-05-12T05:12:47;57140.47;;;-144.78;32.07
55994;BME280;67425;52.126;20.638;2023-05-12T05:15:12;57138.38;;;-144.78;32.15
55994;BME280;67425;52.126;20.638;2023-05-12T05:17:38;57119.69;;;-144.78;32.10
55994;BME280;67425;52.126;20.638;2023-05-12T05:20:04;57125.94;;;-144.78;31.27
55994;BME280;67425;52.126;20.638;2023-05-12T05:22:31;57113.47;;;-144.78;31.33
55994;BME280;67425;52.126;20.638;2023-05-12T05:24:56;57107.25;;;-144.78;31.77
55994;BME280;67425;52.126;20.638;2023-05-12T05:27:22;57094.78;;;-144.78;30.82
55994;BME280;67425;52.126;20.638;2023-05-12T05:29:47;57090.63;;;-144.78;31.03
55994;BME280;67425;52.126;20.638;2023-05-12T05:32:13;57098.94;;;-144.78;31.08
55994;BME280;67425;52.126;20.638;2023-05-12T05:34:38;57109.31;;;-144.78;30.76
55994;BME280;67425;52.126;20.638;2023-05-12T05:37:04;57115.53;;;-144.78;30.85
55994;BME280;67425;52.126;20.638;2023-05-12T05:39:29;57098.94;;;-144.78;30.55
55994;BME280;67425;52.126;20.638;2023-05-12T05:41:56;57096.84;;;-144.78;30.80
55994;BME280;67425;52.126;20.638;2023-05-12T05:44:22;57090.63;;;-144.78;30.48
55994;BME280;67425;52.126;20.638;2023-05-12T05:46:49;57096.84;;;-144.78;30.31
55994;BME280;67425;52.126;20.638;2023-05-12T05:49:14;57080.25;;;-144.78;30.04
55994;BME280;67425;52.126;20.638;2023-05-12T05:51:39;57076.09;;;-144.78;29.88
55994;BME280;67425;52.126;20.638;2023-05-12T05:54:05;57105.16;;;-144.78;30.50
55994;BME280;67425;52.126;20.638;2023-05-12T05:56:30;57111.41;;;-144.78;31.13
55994;BME280;67425;52.126;20.638;2023-05-12T05:58:57;57055.31;;;-144.78;30.19
55994;BME280;67425;52.126;20.638;2023-05-12T06:01:26;57071.94;;;-144.78;29.94
55994;BME280;67425;52.126;20.638;2023-05-12T06:03:51;57074.00;;;-144.78;30.65
55994;BME280;67425;52.126;20.638;2023-05-12T06:06:17;57065.72;;;-144.78;29.99
55994;BME280;67425;52.126;20.638;2023-05-12T06:08:42;57057.41;;;-144.78;29.18
55994;BME280;67425;52.126;20.638;2023-05-12T06:11:07;57069.88;;;-144.78;29.71
55994;BME280;67425;52.126;20.638;2023-05-12T06:13:33;57063.63;;;-144.78;29.21
55994;BME280;67425;52.126;20.638;2023-05-12T06:15:58;57044.94;;;-144.78;28.79
55994;BME280;67425;52.126;20.638;2023-05-12T06:18:23;57038.72;;;-144.78;28.96
55994;BME280;67425;52.126;20.638;2023-05-12T06:20:49;57036.63;;;-144.78;28.62
55994;BME280;67425;52.126;20.638;2023-05-12T06:23:14;57024.19;;;-144.78;28.76
55994;BME280;67425;52.126;20.638;2023-05-12T06:25:39;57034.56;;;-144.78;29.21
55994;BME280;67425;52.126;20.638;2023-05-12T06:28:05;57044.94;;;-144.78;29.87
55994;BME280;67425;52.126;20.638;2023-05-12T06:30:31;57026.25;;;-144.78;28.88
55994;BME280;67425;52.126;20.638;2023-05-12T06:32:56;57007.56;;;-144.78;28.28
55994;BME280;67425;52.126;20.638;2023-05-12T06:35:22;57022.09;;;-144.78;28.73
55994;BME280;67425;52.126;20.638;2023-05-12T06:37:47;57003.41;;;-144.78;28.56
55994;BME280;67425;52.126;20.638;2023-05-12T06:40:15;57013.78;;;-144.78;27.98
55994;BME280;67425;52.126;20.638;2023-05-12T06:42:41;57020.03;;;-144.78;28.40
55994;BME280;67425;52.126;20.638;2023-05-12T06:45:07;57026.25;;;-144.78;29.00
55994;BME280;67425;52.126;20.638;2023-05-12T06:47:32;56984.72;;;-144.78;27.51
55994;BME280;67425;52.126;20.638;2023-05-12T06:49:58;56997.19;;;-144.78;28.29
55994;BME280;67425;52.126;20.638;2023-05-12T06:52:23;56982.66;;;-144.78;27.46
55994;BME280;67425;52.126;20.638;2023-05-12T06:54:49;56972.25;;;-144.78;27.83
55994;BME280;67425;52.126;20.638;2023-05-12T06:57:14;56980.56;;;-144.78;27.23
55994;BME280;67425;52.126;20.638;2023-05-12T06:59:40;56986.81;;;-144.78;28.43
55994;BME280;67425;52.126;20.638;2023-05-12T07:02:05;56966.03;;;-144.78;28.09
55994;BME280;67425;52.126;20.638;2023-05-12T07:04:30;56986.81;;;-144.78;28.29
55994;BME280;67425;52.126;20.638;2023-05-12T07:06:56;57013.78;;;-144.78;28.01
55994;BME280;67425;52.126;20.638;2023-05-12T07:09:21;56990.97;;;-144.78;28.47
55994;BME280;67425;52.126;20.638;2023-05-12T07:11:47;56995.09;;;-144.78;27.33
55994;BME280;67425;52.126;20.638;2023-05-12T07:14:12;56961.88;;;-144.78;27.11
55994;BME280;67425;52.126;20.638;2023-05-12T07:16:37;56959.81;;;-144.78;26.70
55994;BME280;67425;52.126;20.638;2023-05-12T07:19:03;56974.34;;;-144.78;27.52
55994;BME280;67425;52.126;20.638;2023-05-12T07:21:30;56980.56;;;-144.78;27.71
55994;BME280;67425;52.126;20.638;2023-05-12T07:23:55;56976.41;;;-144.78;27.14
55994;BME280;67425;52.126;20.638;2023-05-12T07:26:21;56957.72;;;-144.78;26.75
55994;BME280;67425;52.126;20.638;2023-05-12T07:28:48;56941.13;;;-144.78;26.85
55994;BME280;67425;52.126;20.638;2023-05-12T07:31:14;56936.97;;;-144.78;27.29
55994;BME280;67425;52.126;20.638;2023-05-12T07:33:39;56957.72;;;-144.78;25.79
55994;BME280;67425;52.126;20.638;2023-05-12T07:36:05;56947.34;;;-144.78;27.88
55994;BME280;67425;52.126;20.638;2023-05-12T07:38:32;56932.81;;;-144.78;26.44
55994;BME280;67425;52.126;20.638;2023-05-12T07:40:58;56947.34;;;-144.78;26.56
55994;BME280;67425;52.126;20.638;2023-05-12T07:43:23;56947.34;;;-144.78;26.50
55994;BME280;67425;52.126;20.638;2023-05-12T07:45:48;56924.50;;;-144.78;26.46
55994;BME280;67425;52.126;20.638;2023-05-12T07:48:14;56949.44;;;-144.78;25.61
55994;BME280;67425;52.126;20.638;2023-05-12T07:50:39;56936.97;;;-144.78;26.50
55994;BME280;67425;52.126;20.638;2023-05-12T07:53:05;56949.44;;;-144.78;26.62
55994;BME280;67425;52.126;20.638;2023-05-12T07:55:31;56947.34;;;-144.78;26.36
55994;BME280;67425;52.126;20.638;2023-05-12T07:58:00;56949.44;;;-144.78;25.72
55994;BME280;67425;52.126;20.638;2023-05-12T08:00:25;56947.34;;;-144.78;25.96
55994;BME280;67425;52.126;20.638;2023-05-12T08:02:50;56934.88;;;-144.78;25.59
55994;BME280;67425;52.126;20.638;2023-05-12T08:05:16;56951.50;;;-144.78;25.81
55994;BME280;67425;52.126;20.638;2023-05-12T08:07:41;56943.19;;;-144.78;26.49
55994;BME280;67425;52.126;20.638;2023-05-12T08:10:09;56930.72;;;-144.78;25.57
55994;BME280;67425;52.126;20.638;2023-05-12T08:12:35;56945.28;;;-144.78;25.34
55994;BME280;67425;52.126;20.638;2023-05-12T08:15:01;56949.44;;;-144.78;25.13
55994;BME280;67425;52.126;20.638;2023-05-12T08:17:26;56961.88;;;-144.78;26.15
55994;BME280;67425;52.126;20.638;2023-05-12T08:19:51;56957.72;;;-144.78;24.83
55994;BME280;67425;52.126;20.638;2023-05-12T08:22:17;56961.88;;;-144.78;25.51
55994;BME280;67425;52.126;20.638;2023-05-12T08:24:43;56963.97;;;-144.78;25.63
55994;BME280;67425;52.126;20.638;2023-05-12T08:27:09;56947.34;;;-144.78;24.90
55994;BME280;67425;52.126;20.638;2023-05-12T08:29:35;56951.50;;;-144.78;25.63
55994;BME280;67425;52.126;20.638;2023-05-12T08:32:01;56945.28;;;-144.78;25.35
55994;BME280;67425;52.126;20.638;2023-05-12T08:34:26;56947.34;;;-144.78;25.53
55994;BME280;67425;52.126;20.638;2023-05-12T08:36:52;56951.50;;;-144.78;24.90
55994;BME280;67425;52.126;20.638;2023-05-12T08:39:18;56936.97;;;-144.78;24.72
55994;BME280;67425;52.126;20.638;2023-05-12T08:44:38;56957.72;;;-144.78;24.12
55994;BME280;67425;52.126;20.638;2023-05-12T08:47:04;56941.13;;;-144.78;24.21
55994;BME280;67425;52.126;20.638;2023-05-12T08:49:31;56953.56;;;-144.78;24.32
55994;BME280;67425;52.126;20.638;2023-05-12T08:51:58;56945.28;;;-144.78;24.51
55994;BME280;67425;52.126;20.638;2023-05-12T08:54:26;56943.19;;;-144.78;24.66
55994;BME280;67425;52.126;20.638;2023-05-12T08:56:52;56924.50;;;-144.78;24.30
55994;BME280;67425;52.126;20.638;2023-05-12T08:59:18;56936.97;;;-144.78;23.91
55994;BME280;67425;52.126;20.638;2023-05-12T09:01:44;56907.91;;;-144.78;24.71
55994;BME280;67425;52.126;20.638;2023-05-12T09:04:11;56926.59;;;-144.78;24.63
55994;BME280;67425;52.126;20.638;2023-05-12T09:06:40;56907.91;;;-144.78;24.17
55994;BME280;67425;52.126;20.638;2023-05-12T09:09:06;56930.72;;;-144.78;23.97
55994;BME280;67425;52.126;20.638;2023-05-12T09:11:32;56916.19;;;-144.78;23.99
55994;BME280;67425;52.126;20.638;2023-05-12T09:16:27;56941.13;;;-144.78;24.60
55994;BME280;67425;52.126;20.638;2023-05-12T09:18:57;56941.13;;;-144.78;23.84
55994;BME280;67425;52.126;20.638;2023-05-12T09:21:24;56943.19;;;-144.78;23.76
55994;BME280;67425;52.126;20.638;2023-05-12T09:23:58;56936.97;;;-144.78;24.11
55994;BME280;67425;52.126;20.638;2023-05-12T09:26:25;56945.28;;;-144.78;24.23
55994;BME280;67425;52.126;20.638;2023-05-12T09:29:02;56926.59;;;-144.78;24.49
55994;BME280;67425;52.126;20.638;2023-05-12T09:31:32;56939.03;;;-144.78;23.37
55994;BME280;67425;52.126;20.638;2023-05-12T09:33:57;56949.44;;;-144.78;24.26
55994;BME280;67425;52.126;20.638;2023-05-12T09:36:23;56963.97;;;-144.78;23.83
55994;BME280;67425;52.126;20.638;2023-05-12T09:39:02;56916.19;;;-144.78;24.04
55994;BME280;67425;52.126;20.638;2023-05-12T09:41:41;56912.03;;;-144.78;24.82
55994;BME280;67425;52.126;20.638;2023-05-12T09:44:08;56895.44;;;-144.78;23.75
55994;BME280;67425;52.126;20.638;2023-05-12T09:46:34;56905.81;;;-144.78;23.13
55994;BME280;67425;52.126;20.638;2023-05-12T09:49:00;56895.44;;;-144.78;22.70
55994;BME280;67425;52.126;20.638;2023-05-12T09:51:26;56928.66;;;-144.78;23.20
55994;BME280;67425;52.126;20.638;2023-05-12T09:53:53;56922.44;;;-144.78;23.65
55994;BME280;67425;52.126;20.638;2023-05-12T09:56:19;56920.34;;;-144.78;23.74
55994;BME280;67425;52.126;20.638;2023-05-12T09:58:47;56932.81;;;-144.78;23.01
55994;BME280;67425;52.126;20.638;2023-05-12T10:01:15;56928.66;;;-144.78;23.77
55994;BME280;67425;52.126;20.638;2023-05-12T10:03:41;56928.66;;;-144.78;22.85
55994;BME280;67425;52.126;20.638;2023-05-12T10:06:10;56909.97;;;-144.78;24.63
55994;BME280;67425;52.126;20.638;2023-05-12T10:08:50;56916.19;;;-144.78;22.82
55994;BME280;67425;52.126;20.638;2023-05-12T10:11:18;56928.66;;;-144.78;23.50
55994;BME280;67425;52.126;20.638;2023-05-12T10:13:43;56916.19;;;-144.78;24.40
55994;BME280;67425;52.126;20.638;2023-05-12T10:16:09;56930.72;;;-144.78;22.98
55994;BME280;67425;52.126;20.638;2023-05-12T10:18:35;56924.50;;;-144.78;22.97
55994;BME280;67425;52.126;20.638;2023-05-12T10:21:02;56941.13;;;-144.78;22.48
55994;BME280;67425;52.126;20.638;2023-05-12T10:23:27;56924.50;;;-144.78;22.94
55994;BME280;67425;52.126;20.638;2023-05-12T10:25:54;56926.59;;;-144.78;23.89
55994;BME280;67425;52.126;20.638;2023-05-12T10:28:29;56897.50;;;-144.78;21.93
55994;BME280;67425;52.126;20.638;2023-05-12T10:30:56;56920.34;;;-144.78;23.15
55994;BME280;67425;52.126;20.638;2023-05-12T10:33:22;56928.66;;;-144.78;22.82
55994;BME280;67425;52.126;20.638;2023-05-12T10:35:47;56934.88;;;-144.78;22.02
55994;BME280;67425;52.126;20.638;2023-05-12T10:38:13;56922.44;;;-144.78;23.12
55994;BME280;67425;52.126;20.638;2023-05-12T10:43:22;56907.91;;;-144.78;23.75
55994;BME280;67425;52.126;20.638;2023-05-12T10:46:08;56912.03;;;-144.78;22.39
55994;BME280;67425;52.126;20.638;2023-05-12T10:48:33;56912.03;;;-144.78;22.79
55994;BME280;67425;52.126;20.638;2023-05-12T10:51:11;56926.59;;;-144.78;22.16
55994;BME280;67425;52.126;20.638;2023-05-12T10:53:39;56939.03;;;-144.78;22.83
55994;BME280;67425;52.126;20.638;2023-05-12T10:56:05;56920.34;;;-144.78;22.15
55994;BME280;67425;52.126;20.638;2023-05-12T10:58:31;56912.03;;;-144.78;22.49
55994;BME280;67425;52.126;20.638;2023-05-12T11:01:04;56912.03;;;-144.78;21.98
55994;BME280;67425;52.126;20.638;2023-05-12T11:03:29;56924.50;;;-144.78;21.94
55994;BME280;67425;52.126;20.638;2023-05-12T11:06:00;56907.91;;;-144.78;22.65
55994;BME280;67425;52.126;20.638;2023-05-12T11:08:26;56907.91;;;-144.78;22.34
55994;BME280;67425;52.126;20.638;2023-05-12T11:10:52;56941.13;;;-144.78;22.57
55994;BME280;67425;52.126;20.638;2023-05-12T11:13:18;56939.03;;;-144.78;21.99
55994;BME280;67425;52.126;20.638;2023-05-12T11:15:43;56907.91;;;-144.78;22.02
55994;BME280;67425;52.126;20.638;2023-05-12T11:18:09;56903.75;;;-144.78;21.57
55994;BME280;67425;52.126;20.638;2023-05-12T11:20:36;56928.66;;;-144.78;21.48
55994;BME280;67425;52.126;20.638;2023-05-12T11:23:01;56924.50;;;-144.78;21.96
55994;BME280;67425;52.126;20.638;2023-05-12T11:25:27;56907.91;;;-144.78;21.76
55994;BME280;67425;52.126;20.638;2023-05-12T11:27:53;56903.75;;;-144.78;22.78
55994;BME280;67425;52.126;20.638;2023-05-12T11:30:19;56909.97;;;-144.78;21.75
55994;BME280;67425;52.126;20.638;2023-05-12T11:32:44;56895.44;;;-144.78;22.66
55994;BME280;67425;52.126;20.638;2023-05-12T11:35:11;56905.81;;;-144.78;21.79
55994;BME280;67425;52.126;20.638;2023-05-12T11:37:38;56893.34;;;-144.78;21.46
55994;BME280;67425;52.126;20.638;2023-05-12T11:40:13;56907.91;;;-144.78;21.95
55994;BME280;67425;52.126;20.638;2023-05-12T11:42:39;56920.34;;;-144.78;21.48
55994;BME280;67425;52.126;20.638;2023-05-12T11:45:18;56895.44;;;-144.78;21.99
55994;BME280;67425;52.126;20.638;2023-05-12T11:47:43;56893.34;;;-144.78;22.00
55994;BME280;67425;52.126;20.638;2023-05-12T11:50:09;56887.13;;;-144.78;21.87
55994;BME280;67425;52.126;20.638;2023-05-12T11:52:34;56899.59;;;-144.78;21.63
55994;BME280;67425;52.126;20.638;2023-05-12T11:55:00;56907.91;;;-144.78;21.57
55994;BME280;67425;52.126;20.638;2023-05-12T11:57:30;56916.19;;;-144.78;21.63
55994;BME280;67425;52.126;20.638;2023-05-12T12:00:02;56916.19;;;-144.78;22.00
55994;BME280;67425;52.126;20.638;2023-05-12T12:02:28;56918.28;;;-144.78;22.51
55994;BME280;67425;52.126;20.638;2023-05-12T12:04:54;56912.03;;;-144.78;22.24
55994;BME280;67425;52.126;20.638;2023-05-12T12:09:55;56899.59;;;-144.78;21.75
55994;BME280;67425;52.126;20.638;2023-05-12T12:12:21;56889.22;;;-144.78;21.45
55994;BME280;67425;52.126;20.638;2023-05-12T12:14:46;56874.66;;;-144.78;21.69
55994;BME280;67425;52.126;20.638;2023-05-12T12:17:11;56876.75;;;-144.78;22.23
55994;BME280;67425;52.126;20.638;2023-05-12T12:19:37;56889.22;;;-144.78;22.11
55994;BME280;67425;52.126;20.638;2023-05-12T12:22:02;56876.75;;;-144.78;21.63
55994;BME280;67425;52.126;20.638;2023-05-12T12:24:27;56878.81;;;-144.78;20.94
55994;BME280;67425;52.126;20.638;2023-05-12T12:26:53;56891.28;;;-144.78;20.83
55994;BME280;67425;52.126;20.638;2023-05-12T12:29:18;56878.81;;;-144.78;21.13
55994;BME280;67425;52.126;20.638;2023-05-12T12:31:43;56899.59;;;-144.78;21.89
55994;BME280;67425;52.126;20.638;2023-05-12T12:34:09;56901.66;;;-144.78;21.15
55994;BME280;67425;52.126;20.638;2023-05-12T12:36:35;56887.13;;;-144.78;21.13